Time;durP1;ratioP1;P1;durP2;ratioP2;P2;SDS_P1;SDS_P2;PMS_P1;PMS_P2;Temp;Humidity;BMP_temperature;BMP_pressure;BME280_temperature;BME280_humidity;BME280_pressure;Samples;Min_cycle;Max_cycle;Signal;HPM_P1;HPM_P2
2023/09/06 00:00:32;;;;;;;1.33;1.23;;;;;;;18.13;75.25;95837.16;4332659;32;20205;-67
2023/09/06 00:02:58;;;;;;;1.40;1.40;;;;;;;18.06;75.38;95835.03;4334393;32;20189;-67
2023/09/06 00:05:25;;;;;;;1.17;0.90;;;;;;;18.08;75.57;95840.06;4323238;33;20178;-68
2023/09/06 00:07:50;;;;;;;1.63;1.53;;;;;;;17.95;75.97;95835.72;4334843;32;20232;-68
2023/09/06 00:10:16;;;;;;;1.73;1.63;;;;;;;17.94;75.40;95840.31;4333974;32;20257;-67
2023/09/06 00:12:42;;;;;;;2.60;2.00;;;;;;;17.85;76.49;95828.88;4329051;33;20189;-67
2023/09/06 00:15:09;;;;;;;1.77;1.67;;;;;;;17.85;75.70;95828.88;4323695;33;20190;-67
2023/09/06 00:17:37;;;;;;;1.50;1.40;;;;;;;17.92;76.70;95831.03;4320914;33;20269;-67
2023/09/06 00:20:21;;;;;;;0.93;0.93;;;;;;;17.78;77.21;95832.06;4317412;33;20205;-67
2023/09/06 00:22:55;;;;;;;1.10;1.10;;;;;;;17.73;76.65;95829.56;4327744;32;20271;-67
2023/09/06 00:25:21;;;;;;;1.27;1.27;;;;;;;17.91;76.30;95826.75;4318867;33;20196;-67
2023/09/06 00:27:46;;;;;;;1.53;1.43;;;;;;;18.03;76.21;95821.47;4315769;33;20190;-67
2023/09/06 00:30:12;;;;;;;1.33;1.23;;;;;;;18.03;75.54;95821.47;4329736;33;20193;-67
2023/09/06 00:32:37;;;;;;;1.80;1.70;;;;;;;17.99;76.16;95821.34;4327276;33;20220;-67
2023/09/06 00:35:03;;;;;;;1.33;1.33;;;;;;;17.94;76.18;95826.09;4323395;33;20256;-67
2023/09/06 00:37:39;;;;;;;1.27;1.17;;;;;;;17.79;76.31;95822.13;4320799;33;20342;-67
2023/09/06 00:40:18;;;;;;;1.10;1.10;;;;;;;17.93;76.48;95821.84;4329878;32;20180;-67
2023/09/06 00:43:02;;;;;;;1.33;1.33;;;;;;;17.73;76.90;95824.19;4318578;32;24121;-67
2023/09/06 00:45:37;;;;;;;1.63;1.53;;;;;;;17.93;76.36;95816.47;4330188;33;20192;-67
2023/09/06 00:48:05;;;;;;;1.07;1.07;;;;;;;17.92;76.10;95831.81;4325019;32;20203;-68
2023/09/06 00:50:30;;;;;;;1.60;1.50;;;;;;;17.82;76.64;95824.16;4327085;32;20197;-67
2023/09/06 00:52:57;;;;;;;0.93;0.93;;;;;;;17.89;76.13;95820.94;4331567;32;20182;-67
2023/09/06 00:55:23;;;;;;;1.63;1.27;;;;;;;17.93;76.65;95819.16;4322474;32;20252;-67
2023/09/06 00:57:48;;;;;;;1.47;1.37;;;;;;;17.94;76.49;95826.09;4320447;33;20273;-67
2023/09/06 01:00:23;;;;;;;1.13;1.13;;;;;;;17.90;76.07;95822.50;4335375;32;20308;-67
2023/09/06 01:02:49;;;;;;;0.93;0.93;;;;;;;17.89;76.80;95826.28;4330877;32;20206;-67
2023/09/06 01:05:15;;;;;;;1.57;1.20;;;;;;;17.75;77.50;95826.56;4327101;32;20265;-67
2023/09/06 01:07:45;;;;;;;0.87;0.87;;;;;;;17.81;77.40;95825.25;4334907;32;20223;-67
2023/09/06 01:10:11;;;;;;;1.57;1.47;;;;;;;17.91;77.34;95818.72;4338111;32;20185;-67
2023/09/06 01:12:36;;;;;;;1.33;1.33;;;;;;;17.80;77.78;95823.69;4340654;32;20227;-67
2023/09/06 01:15:03;;;;;;;3.90;1.53;;;;;;;17.66;78.22;95823.94;4323552;32;20197;-67
2023/09/06 01:17:31;;;;;;;1.80;1.70;;;;;;;17.78;77.67;95825.91;4305718;33;20190;-67
2023/09/06 01:20:15;;;;;;;1.57;1.50;;;;;;;17.71;77.65;95822.94;4323057;33;20264;-67
2023/09/06 01:22:47;;;;;;;0.73;0.73;;;;;;;17.77;77.70;95819.75;4305010;33;20268;-67
2023/09/06 01:25:13;;;;;;;0.97;0.97;;;;;;;17.70;77.99;95826.75;4328323;33;20183;-67
2023/09/06 01:27:39;;;;;;;1.17;1.17;;;;;;;17.63;78.22;95835.31;4315929;33;20190;-67
2023/09/06 01:30:07;;;;;;;1.30;1.30;;;;;;;17.73;78.20;95823.41;4316504;33;20185;-66
2023/09/06 01:32:32;;;;;;;1.70;1.63;;;;;;;17.75;78.38;95826.56;4311404;33;20174;-67
2023/09/06 01:34:57;;;;;;;0.80;0.80;;;;;;;17.70;78.12;95819.47;4322605;33;20249;-67
2023/09/06 01:37:22;;;;;;;4.20;2.10;;;;;;;17.55;78.15;95822.72;4317336;33;20195;-68
2023/09/06 01:39:48;;;;;;;4.30;1.93;;;;;;;17.66;78.27;95825.84;4328611;32;20185;-67
2023/09/06 01:42:13;;;;;;;1.23;1.23;;;;;;;17.54;78.95;95818.47;4310039;33;21373;-67
2023/09/06 01:44:38;;;;;;;1.77;1.67;;;;;;;17.59;78.91;95820.97;4316836;33;20226;-67
2023/09/06 01:47:04;;;;;;;1.53;1.50;;;;;;;17.73;78.29;95815.38;4319838;33;20190;-67
2023/09/06 01:49:29;;;;;;;1.97;1.63;;;;;;;17.68;77.72;95820.91;4321220;33;20225;-67
2023/09/06 01:51:57;;;;;;;1.60;1.50;;;;;;;17.69;77.91;95811.75;4310555;33;20182;-68
2023/09/06 01:54:23;;;;;;;1.60;1.50;;;;;;;17.47;78.91;95815.50;4324862;33;20182;-67
2023/09/06 01:56:48;;;;;;;0.93;0.93;;;;;;;17.59;78.65;95812.91;4313647;33;20209;-67
2023/09/06 01:59:13;;;;;;;1.47;1.23;;;;;;;17.53;78.79;95806.94;4326252;33;20324;-67
2023/09/06 02:01:39;;;;;;;1.57;1.47;;;;;;;17.64;78.13;95809.25;4319125;33;20245;-67
2023/09/06 02:04:05;;;;;;;1.23;1.23;;;;;;;17.55;78.31;95806.63;4323522;33;20205;-67
2023/09/06 02:06:31;;;;;;;1.13;1.13;;;;;;;17.46;78.66;95806.66;4325215;33;20182;-67
2023/09/06 02:08:56;;;;;;;4.30;2.13;;;;;;;17.55;78.04;95795.88;4320618;33;20300;-67
2023/09/06 02:11:22;;;;;;;2.17;2.07;;;;;;;17.49;78.66;95794.50;4331472;33;20205;-67
2023/09/06 02:13:47;;;;;;;2.60;2.40;;;;;;;17.45;78.68;95796.28;4314356;33;20198;-67
2023/09/06 02:16:12;;;;;;;2.53;1.83;;;;;;;17.24;79.81;95790.09;4316292;33;20187;-67
2023/09/06 02:18:38;;;;;;;1.60;1.47;;;;;;;17.14;80.13;95801.94;4333768;33;20186;-67
2023/09/06 02:21:03;;;;;;;1.40;1.40;;;;;;;17.18;79.53;95798.31;4331165;33;20189;-67
2023/09/06 02:23:29;;;;;;;2.40;1.67;;;;;;;17.08;79.25;95798.66;4318023;33;20178;-67
2023/09/06 02:25:56;;;;;;;8.27;1.83;;;;;;;17.34;79.28;95797.75;4333402;33;20201;-68
2023/09/06 02:28:21;;;;;;;0.83;0.83;;;;;;;17.36;79.46;95808.94;4333372;33;20197;-67
2023/09/06 02:30:47;;;;;;;1.27;1.27;;;;;;;17.35;78.69;95808.16;4333047;33;20204;-67
2023/09/06 02:33:14;;;;;;;1.40;1.30;;;;;;;17.42;78.54;95796.91;4333434;33;20201;-67
2023/09/06 02:35:43;;;;;;;2.13;1.90;;;;;;;17.44;78.92;95795.50;4316863;33;20284;-67
2023/09/06 02:38:10;;;;;;;2.00;1.90;;;;;;;17.38;78.87;95796.78;4331281;33;20192;-67
2023/09/06 02:40:36;;;;;;;1.30;1.20;;;;;;;17.47;78.82;95794.03;4329911;33;20190;-67
2023/09/06 02:43:02;;;;;;;1.50;1.40;;;;;;;17.38;78.82;95796.00;4330746;33;20269;-67
2023/09/06 02:45:36;;;;;;;1.47;1.37;;;;;;;17.42;78.63;95802.28;4330124;33;20186;-67
2023/09/06 02:48:06;;;;;;;1.10;1.10;;;;;;;17.39;78.78;95800.25;4332441;32;20243;-67
2023/09/06 02:50:36;;;;;;;1.33;1.33;;;;;;;17.39;79.15;95802.94;4332630;33;20201;-67
2023/09/06 02:53:03;;;;;;;1.83;1.73;;;;;;;17.34;79.55;95798.53;4332130;33;20259;-67
2023/09/06 02:55:29;;;;;;;1.67;1.57;;;;;;;17.32;79.64;95802.66;4326652;33;20193;-67
2023/09/06 02:57:55;;;;;;;1.93;1.83;;;;;;;17.24;79.27;95795.44;4316928;33;20178;-67
2023/09/06 03:02:48;;;;;;;2.10;2.00;;;;;;;16.84;80.16;95803.78;4322045;33;20246;-66
2023/09/06 03:05:17;;;;;;;2.63;1.70;;;;;;;17.05;80.34;95801.19;4330216;33;20261;-67
2023/09/06 03:07:45;;;;;;;2.23;2.13;;;;;;;17.21;80.15;95801.44;4343121;32;20272;-67
2023/09/06 03:10:10;;;;;;;1.40;1.30;;;;;;;17.21;79.64;95809.50;4341041;32;20182;-67
2023/09/06 03:12:36;;;;;;;1.03;1.03;;;;;;;16.86;80.62;95812.31;4327773;32;20200;-67
2023/09/06 03:15:01;;;;;;;0.87;0.87;;;;;;;17.12;80.47;95807.63;4330780;32;20269;-67
2023/09/06 03:17:26;;;;;;;1.30;1.30;;;;;;;17.28;80.01;95807.06;4307762;33;20193;-67
2023/09/06 03:19:53;;;;;;;1.27;1.27;;;;;;;17.26;80.17;95803.94;4330550;32;20189;-67
2023/09/06 03:22:21;;;;;;;1.60;1.60;;;;;;;17.22;80.01;95819.13;4332461;32;20226;-67
2023/09/06 03:24:48;;;;;;;1.97;1.87;;;;;;;17.02;80.16;95815.25;4315009;33;20257;-67
2023/09/06 03:27:16;;;;;;;1.13;1.03;;;;;;;16.85;81.24;95824.13;4327025;33;20182;-67
2023/09/06 03:29:43;;;;;;;1.07;1.07;;;;;;;17.07;80.74;95826.56;4319212;33;20186;-67
2023/09/06 03:32:09;;;;;;;1.87;1.77;;;;;;;17.22;80.31;95829.84;4330677;33;20220;-67
2023/09/06 03:34:35;;;;;;;1.70;1.60;;;;;;;17.21;80.27;95820.22;4328091;33;20194;-67
2023/09/06 03:37:04;;;;;;;1.47;1.40;;;;;;;17.26;79.81;95825.38;4326212;33;20240;-67
2023/09/06 03:39:32;;;;;;;1.00;1.00;;;;;;;17.09;80.16;95819.00;4326472;33;20173;-67
2023/09/06 03:42:00;;;;;;;2.33;2.20;;;;;;;16.81;80.00;95825.91;4324983;32;20231;-67
2023/09/06 03:44:27;;;;;;;1.93;1.83;;;;;;;16.91;80.56;95828.22;4312801;33;20260;-67
2023/09/06 03:46:56;;;;;;;3.03;1.97;;;;;;;17.00;81.10;95836.25;4328496;32;20181;-67
2023/09/06 03:49:21;;;;;;;1.93;1.70;;;;;;;17.10;80.26;95836.66;4337247;32;20297;-67
2023/09/06 03:51:48;;;;;;;2.73;2.53;;;;;;;16.71;81.44;95824.34;4333431;32;20190;-67
2023/09/06 03:54:17;;;;;;;2.73;1.93;;;;;;;16.36;81.54;95828.16;4326529;32;20209;-67
2023/09/06 03:56:43;;;;;;;1.53;1.53;;;;;;;16.76;82.00;95824.16;4336056;32;20231;-67
2023/09/06 03:59:09;;;;;;;1.93;1.83;;;;;;;16.85;81.76;95818.78;4327545;33;20193;-67
2023/09/06 04:01:34;;;;;;;1.50;1.40;;;;;;;16.58;80.55;95821.84;4327030;32;20190;-67
2023/09/06 04:04:00;;;;;;;5.93;1.97;;;;;;;16.96;81.21;95828.03;4318387;33;20225;-67
2023/09/06 04:06:28;;;;;;;1.63;1.63;;;;;;;16.96;81.27;95827.25;4323214;32;20185;-67
2023/09/06 04:08:54;;;;;;;4.50;1.77;;;;;;;16.95;80.85;95821.12;4332932;33;20170;-67
2023/09/06 04:11:19;;;;;;;1.17;1.17;;;;;;;16.83;81.15;95829.06;4315643;33;20197;-67
2023/09/06 04:13:45;;;;;;;3.03;1.97;;;;;;;16.69;81.78;95823.87;4330290;32;20225;-67
2023/09/06 04:16:10;;;;;;;4.03;2.63;;;;;;;16.52;82.29;95823.09;4326616;32;20198;-67
2023/09/06 04:18:35;;;;;;;2.10;2.00;;;;;;;16.60;82.14;95835.69;4315918;33;20268;-67
2023/09/06 04:21:07;;;;;;;2.20;2.10;;;;;;;16.52;82.42;95828.44;4318620;33;20182;-67
2023/09/06 04:23:33;;;;;;;1.43;1.23;;;;;;;16.51;82.91;95827.66;4314115;33;20212;-67
2023/09/06 04:26:00;;;;;;;1.13;1.13;;;;;;;16.52;83.05;95839.16;4311172;33;20185;-67
2023/09/06 04:28:25;;;;;;;4.53;1.80;;;;;;;16.74;82.28;95833.63;4298014;33;20178;-68
2023/09/06 04:30:52;;;;;;;1.97;1.87;;;;;;;16.48;82.70;95839.78;4304866;33;20237;-67
2023/09/06 04:33:17;;;;;;;3.13;1.90;;;;;;;16.27;82.69;95836.19;4311994;33;20182;-67
2023/09/06 04:35:47;;;;;;;5.53;1.53;;;;;;;16.42;83.29;95834.91;4318255;33;20304;-67
2023/09/06 04:38:15;;;;;;;1.37;1.37;;;;;;;16.47;82.83;95838.22;4304803;33;20198;-67
2023/09/06 04:40:43;;;;;;;2.47;2.10;;;;;;;16.52;82.58;95834.59;4317234;32;20237;-67
2023/09/06 04:43:10;;;;;;;2.00;1.93;;;;;;;16.26;82.69;95837.31;4328616;32;20305;-66
2023/09/06 04:45:39;;;;;;;4.23;1.97;;;;;;;16.14;82.52;95842.50;4314002;33;20224;-67
2023/09/06 04:48:08;;;;;;;1.63;1.53;;;;;;;16.16;83.85;95848.34;4318841;33;20190;-67
2023/09/06 04:50:34;;;;;;;1.50;1.40;;;;;;;16.33;83.89;95842.97;4315225;33;20269;-67
2023/09/06 04:52:59;;;;;;;2.43;2.10;;;;;;;16.48;83.21;95839.00;4314010;33;20256;-67
2023/09/06 04:55:24;;;;;;;1.63;1.63;;;;;;;16.59;82.65;95847.50;4304446;33;20186;-67
2023/09/06 04:57:49;;;;;;;1.73;1.63;;;;;;;16.61;82.37;95840.75;4313018;33;20208;-67
2023/09/06 05:00:18;;;;;;;3.63;1.83;;;;;;;16.61;81.42;95848.78;4294055;33;20197;-67
2023/09/06 05:02:47;;;;;;;1.37;1.37;;;;;;;16.44;82.78;95849.56;4308038;33;20189;-67
2023/09/06 05:05:16;;;;;;;3.63;1.87;;;;;;;16.40;83.43;95854.00;4312661;33;20232;-67
2023/09/06 05:07:41;;;;;;;1.43;1.37;;;;;;;16.34;82.52;95855.25;4315146;33;20205;-67
2023/09/06 05:10:09;;;;;;;1.93;1.80;;;;;;;16.38;83.24;95850.06;4313588;33;20193;-67
2023/09/06 05:12:35;;;;;;;1.00;1.00;;;;;;;16.47;82.45;95864.22;4322182;33;20200;-67
2023/09/06 05:15:01;;;;;;;1.73;1.63;;;;;;;16.41;82.58;95868.19;4310547;33;20229;-67
2023/09/06 05:17:26;;;;;;;1.23;1.23;;;;;;;16.34;82.74;95863.28;4328636;33;20204;-67
2023/09/06 05:19:54;;;;;;;1.43;1.43;;;;;;;16.31;83.75;95871.97;4317112;33;20182;-67
2023/09/06 05:22:22;;;;;;;1.80;1.37;;;;;;;16.30;83.22;95870.37;4328361;33;20197;-67
2023/09/06 05:24:49;;;;;;;1.33;1.33;;;;;;;16.19;83.51;95879.06;4341986;33;20210;-67
2023/09/06 05:27:14;;;;;;;1.90;1.80;;;;;;;16.31;83.32;95871.16;4323915;33;20182;-67
2023/09/06 05:29:40;;;;;;;2.67;2.57;;;;;;;16.04;83.38;95877.59;4317608;33;20276;-67
2023/09/06 05:32:06;;;;;;;1.13;1.13;;;;;;;16.27;83.97;95873.69;4326647;32;20177;-67
2023/09/06 05:34:31;;;;;;;1.30;1.27;;;;;;;16.43;83.45;95874.78;4326371;33;20181;-66
2023/09/06 05:36:56;;;;;;;1.43;1.43;;;;;;;16.50;82.66;95875.09;4339872;33;20193;-67
2023/09/06 05:39:22;;;;;;;1.43;1.43;;;;;;;16.43;82.71;95882.81;4324384;32;20186;-67
2023/09/06 05:41:48;;;;;;;1.80;1.70;;;;;;;16.28;81.11;95883.28;4320723;33;20190;-66
2023/09/06 05:44:13;;;;;;;2.27;2.07;;;;;;;16.30;82.34;95883.78;4322214;32;20205;-67
2023/09/06 05:46:38;;;;;;;1.97;1.67;;;;;;;16.35;83.01;95878.25;4326121;33;20236;-67
2023/09/06 05:49:04;;;;;;;1.30;1.30;;;;;;;16.48;82.38;95885.31;4327080;33;20197;-67
2023/09/06 05:51:30;;;;;;;2.10;2.00;;;;;;;16.32;82.73;95892.28;4321752;33;20241;-67
2023/09/06 05:53:56;;;;;;;2.43;2.33;;;;;;;16.24;83.10;95893.06;4330198;33;20227;-68
2023/09/06 05:56:21;;;;;;;2.90;2.60;;;;;;;16.18;83.45;95894.34;4323297;33;20207;-67
2023/09/06 05:58:47;;;;;;;7.90;2.10;;;;;;;16.42;84.60;95894.63;4324326;33;20177;-67
2023/09/06 06:01:17;;;;;;;1.60;1.60;;;;;;;16.38;83.57;95893.69;4330713;33;20190;-67
2023/09/06 06:03:43;;;;;;;1.33;1.33;;;;;;;16.53;82.73;95895.09;4328875;32;20217;-67
2023/09/06 06:06:10;;;;;;;1.80;1.70;;;;;;;16.67;83.05;95889.59;4319727;33;20189;-67
2023/09/06 06:08:37;;;;;;;16.90;1.90;;;;;;;16.78;81.88;95890.84;4329529;33;20261;-67
2023/09/06 06:11:02;;;;;;;2.20;2.10;;;;;;;16.74;82.08;95884.53;4313343;32;20182;-67
2023/09/06 06:13:27;;;;;;;2.80;1.20;;;;;;;16.55;81.76;95892.09;4329096;33;20261;-67
2023/09/06 06:15:53;;;;;;;3.63;2.43;;;;;;;16.76;82.38;95901.09;4327660;33;20215;-67
2023/09/06 06:18:18;;;;;;;3.93;2.30;;;;;;;16.88;82.32;95901.22;4314026;33;20186;-67
2023/09/06 06:20:43;;;;;;;1.60;1.60;;;;;;;17.01;81.41;95900.25;4319657;33;20234;-67
2023/09/06 06:23:09;;;;;;;3.03;2.83;;;;;;;17.01;81.15;95905.63;4328826;33;20181;-67
2023/09/06 06:25:35;;;;;;;1.57;1.47;;;;;;;17.00;80.87;95906.72;4312328;33;20266;-67
2023/09/06 06:28:01;;;;;;;2.30;2.20;;;;;;;16.97;80.12;95910.03;4328328;33;20225;-67
2023/09/06 06:30:26;;;;;;;10.60;2.10;;;;;;;17.04;81.01;95910.31;4329894;32;20244;-67
2023/09/06 06:32:51;;;;;;;2.73;2.53;;;;;;;17.12;81.43;95911.41;4345455;32;20177;-67
2023/09/06 06:35:18;;;;;;;4.63;2.03;;;;;;;17.18;81.03;95910.94;4331087;32;20193;-67
2023/09/06 06:37:43;;;;;;;2.30;1.70;;;;;;;17.21;80.86;95916.75;4332198;32;20205;-67
2023/09/06 06:40:09;;;;;;;2.43;2.33;;;;;;;17.23;80.40;95923.37;4339280;32;20182;-67
2023/09/06 06:42:34;;;;;;;1.73;1.70;;;;;;;17.43;80.59;95916.53;4325820;33;20201;-67
2023/09/06 06:45:00;;;;;;;5.43;2.80;;;;;;;17.44;80.04;95910.06;4323885;32;20278;-67
2023/09/06 06:47:26;;;;;;;1.37;1.37;;;;;;;17.47;80.05;95920.91;4328863;33;20237;-66
2023/09/06 06:49:52;;;;;;;1.57;1.43;;;;;;;17.31;80.53;95908.34;4325166;33;20178;-67
2023/09/06 06:52:18;;;;;;;2.13;2.03;;;;;;;17.36;80.33;95911.66;4325520;33;20178;-67
2023/09/06 06:54:44;;;;;;;1.33;1.33;;;;;;;17.44;80.19;95908.16;4315835;33;20196;-67
2023/09/06 06:57:09;;;;;;;3.43;1.47;;;;;;;17.48;79.49;95903.69;4332848;33;20224;-66
2023/09/06 06:59:34;;;;;;;2.93;2.63;;;;;;;17.44;79.68;95897.44;4319031;33;20185;-67
2023/09/06 07:02:00;;;;;;;1.73;1.70;;;;;;;17.53;79.97;95905.41;4332858;32;20174;-68
2023/09/06 07:04:25;;;;;;;2.13;2.03;;;;;;;17.57;80.19;95906.34;4318927;32;20200;-67
2023/09/06 07:06:51;;;;;;;2.50;2.33;;;;;;;17.66;79.53;95907.13;4337400;32;20249;-67
2023/09/06 07:09:16;;;;;;;6.03;1.37;;;;;;;17.69;79.84;95913.72;4321085;32;20178;-67
2023/09/06 07:11:41;;;;;;;3.20;1.83;;;;;;;17.71;79.54;95906.16;4330379;33;20213;-67
2023/09/06 07:14:07;;;;;;;4.77;4.03;;;;;;;17.60;80.34;95904.94;4329834;32;20181;-67
2023/09/06 07:16:33;;;;;;;6.40;5.77;;;;;;;17.48;81.02;95897.53;4322056;33;20204;-68
2023/09/06 07:18:59;;;;;;;3.57;3.37;;;;;;;17.58;80.37;95901.78;4327924;32;20252;-68
2023/09/06 07:21:25;;;;;;;3.93;3.73;;;;;;;17.67;80.92;95900.63;4313456;33;20213;-67
2023/09/06 07:23:50;;;;;;;4.47;4.07;;;;;;;17.69;79.71;95900.31;4326065;33;20182;-68
2023/09/06 07:26:16;;;;;;;3.23;3.00;;;;;;;17.76;79.87;95900.59;4322254;33;20228;-68
2023/09/06 07:28:46;;;;;;;2.33;2.23;;;;;;;17.79;80.01;95902.63;4327524;33;20204;-68
2023/09/06 07:31:14;;;;;;;1.80;1.70;;;;;;;17.89;79.46;95896.09;4315324;33;20251;-68
2023/09/06 07:33:39;;;;;;;1.67;1.57;;;;;;;17.84;80.29;95897.09;4324311;33;20217;-68
2023/09/06 07:36:05;;;;;;;2.93;2.73;;;;;;;17.89;80.54;95898.78;4314839;33;20191;-68
2023/09/06 07:38:30;;;;;;;2.07;1.90;;;;;;;17.94;80.13;95899.38;4332851;32;20235;-68
2023/09/06 07:41:06;;;;;;;1.63;1.63;;;;;;;18.00;79.62;95900.78;4339410;32;20193;-68
2023/09/06 07:43:34;;;;;;;1.90;1.80;;;;;;;17.93;79.87;95902.38;4329065;32;20235;-68
2023/09/06 07:46:01;;;;;;;2.00;1.90;;;;;;;17.83;79.80;95907.03;4321502;33;20194;-67
2023/09/06 07:48:28;;;;;;;2.27;2.17;;;;;;;18.01;79.49;95902.34;4326102;33;20194;-68
2023/09/06 07:50:58;;;;;;;2.10;1.87;;;;;;;18.10;79.18;95903.06;4329832;32;20189;-68
2023/09/06 07:53:27;;;;;;;1.70;1.60;;;;;;;18.26;78.47;95902.50;4318449;33;20181;-68
2023/09/06 07:55:53;;;;;;;2.23;2.13;;;;;;;18.17;79.03;95897.97;4323667;33;20237;-68
2023/09/06 07:58:19;;;;;;;2.17;2.07;;;;;;;18.35;78.55;95906.69;4335755;32;20212;-68
2023/09/06 08:00:44;;;;;;;3.83;2.63;;;;;;;18.44;78.37;95902.03;4311156;33;20186;-68
2023/09/06 08:03:10;;;;;;;3.37;2.40;;;;;;;18.60;77.61;95904.94;4317167;33;20181;-66
2023/09/06 08:05:36;;;;;;;1.83;1.73;;;;;;;18.79;76.74;95904.44;4331002;32;20207;-66
2023/09/06 08:08:02;;;;;;;1.90;1.80;;;;;;;18.94;76.33;95900.31;4326063;33;20230;-67
2023/09/06 08:10:28;;;;;;;3.03;2.83;;;;;;;18.93;76.37;95907.59;4314866;33;20186;-66
2023/09/06 08:12:53;;;;;;;1.23;1.23;;;;;;;19.27;75.38;95906.47;4316870;33;20283;-67
2023/09/06 08:15:19;;;;;;;1.73;1.63;;;;;;;19.30;75.65;95910.41;4324718;33;20200;-67
2023/09/06 08:17:47;;;;;;;1.03;1.03;;;;;;;19.38;75.15;95910.28;4328984;33;21386;-69
2023/09/06 08:20:16;;;;;;;1.53;1.47;;;;;;;19.49;74.89;95903.34;4330307;33;20186;-70
2023/09/06 08:22:47;;;;;;;1.43;1.43;;;;;;;19.38;74.78;95910.28;4322975;32;20245;-67
2023/09/06 08:25:14;;;;;;;2.30;2.20;;;;;;;19.45;74.97;95907.03;4326304;33;20191;-66
2023/09/06 08:27:39;;;;;;;2.00;1.90;;;;;;;19.54;74.89;95905.84;4316412;33;20276;-66
2023/09/06 08:30:10;;;;;;;2.17;2.07;;;;;;;19.66;74.51;95915.06;4325062;33;20178;-66
2023/09/06 08:32:35;;;;;;;1.47;1.47;;;;;;;19.46;75.08;95909.41;4323750;33;20208;-66
2023/09/06 08:35:00;;;;;;;5.97;3.47;;;;;;;19.58;75.25;95911.34;4329526;33;20217;-67
2023/09/06 08:37:26;;;;;;;2.77;2.63;;;;;;;19.59;75.04;95923.69;4320733;33;20196;-68
2023/09/06 08:39:51;;;;;;;2.00;1.90;;;;;;;19.61;75.24;95917.97;4326685;33;20186;-68
2023/09/06 08:42:20;;;;;;;2.13;2.03;;;;;;;19.67;74.87;95916.63;4331088;33;20185;-68
2023/09/06 08:44:48;;;;;;;9.30;2.30;;;;;;;19.69;74.92;95923.25;4324839;33;20190;-68
2023/09/06 08:47:17;;;;;;;1.77;1.77;;;;;;;19.70;75.13;95916.75;4329015;33;20201;-68
2023/09/06 08:49:46;;;;;;;1.87;1.60;;;;;;;19.76;74.71;95918.06;4322461;33;20190;-68
2023/09/06 08:52:14;;;;;;;2.20;2.10;;;;;;;19.92;74.61;95920.09;4319830;32;20250;-67
2023/09/06 08:54:41;;;;;;;3.03;2.83;;;;;;;19.83;75.34;95921.00;4324427;33;20186;-66
2023/09/06 08:57:06;;;;;;;1.00;1.00;;;;;;;19.81;75.14;95917.06;4326202;33;20186;-66
2023/09/06 08:59:33;;;;;;;2.10;2.00;;;;;;;19.75;75.72;95921.88;4315516;33;20199;-68
2023/09/06 09:01:59;;;;;;;2.00;1.90;;;;;;;19.86;74.87;95912.25;4320260;33;20229;-67
2023/09/06 09:04:24;;;;;;;1.63;1.53;;;;;;;19.93;74.98;95922.47;4324676;33;20197;-67
2023/09/06 09:06:49;;;;;;;2.47;2.27;;;;;;;19.95;74.20;95920.22;4329157;33;20178;-67
2023/09/06 09:09:18;;;;;;;1.80;1.70;;;;;;;19.99;74.24;95925.69;4326857;32;20308;-67
2023/09/06 09:11:45;;;;;;;1.17;1.17;;;;;;;20.01;74.27;95923.44;4314828;33;20181;-68
2023/09/06 09:14:21;;;;;;;2.00;1.90;;;;;;;20.10;74.22;95927.59;4328446;33;20384;-67
2023/09/06 09:16:57;;;;;;;1.20;1.20;;;;;;;20.20;74.37;95920.94;4319470;32;20182;-66
2023/09/06 09:19:23;;;;;;;1.77;1.67;;;;;;;20.21;74.76;95925.22;4328320;32;20229;-66
2023/09/06 09:21:52;;;;;;;2.13;2.03;;;;;;;20.26;74.32;95916.91;4325898;33;20194;-67
2023/09/06 09:24:28;;;;;;;5.63;1.93;;;;;;;20.30;74.24;95914.31;4327760;33;20200;-68
2023/09/06 09:26:56;;;;;;;1.67;1.57;;;;;;;20.33;74.06;95909.03;4319467;33;20190;-69
2023/09/06 09:29:22;;;;;;;1.87;1.77;;;;;;;20.34;74.33;95913.31;4329510;33;20201;-69
2023/09/06 09:31:48;;;;;;;2.63;1.80;;;;;;;20.34;74.05;95907.91;4315475;33;20186;-68
2023/09/06 09:34:13;;;;;;;1.63;1.53;;;;;;;20.49;74.05;95909.13;4326292;33;20273;-68
2023/09/06 09:36:39;;;;;;;1.30;1.30;;;;;;;20.52;73.86;95911.16;4318024;33;20205;-68
2023/09/06 09:39:13;;;;;;;1.87;1.73;;;;;;;20.52;74.51;95913.84;4331915;33;20189;-67
2023/09/06 09:41:41;;;;;;;1.10;1.10;;;;;;;20.65;74.58;95906.47;4329022;33;20189;-68
2023/09/06 09:44:19;;;;;;;1.73;1.63;;;;;;;20.67;74.88;95906.91;4326729;33;20215;-68
2023/09/06 09:46:46;;;;;;;3.87;1.80;;;;;;;20.66;74.72;95911.53;4321669;33;20177;-68
2023/09/06 09:49:13;;;;;;;1.53;1.40;;;;;;;20.63;75.10;95906.81;4329080;32;20243;-69
2023/09/06 09:51:40;;;;;;;1.37;1.37;;;;;;;20.68;74.64;95901.19;4337213;32;20181;-68
2023/09/06 09:54:07;;;;;;;1.53;1.43;;;;;;;20.86;74.32;95910.53;4334077;32;20208;-68
2023/09/06 09:56:34;;;;;;;1.63;1.50;;;;;;;20.90;74.27;95897.94;4343678;32;20189;-68
2023/09/06 09:59:03;;;;;;;1.10;1.10;;;;;;;21.14;74.35;95905.12;4328232;32;20200;-68
2023/09/06 10:01:28;;;;;;;1.30;1.30;;;;;;;21.23;73.89;95903.06;4329616;33;20201;-68
2023/09/06 10:04:00;;;;;;;2.00;1.57;;;;;;;21.32;73.34;95904.81;4340953;32;20204;-69
2023/09/06 10:06:31;;;;;;;0.97;0.97;;;;;;;21.26;73.36;95907.78;4326043;33;20181;-69
2023/09/06 10:08:59;;;;;;;1.60;1.43;;;;;;;21.21;73.44;95907.25;4324853;33;20194;-68
2023/09/06 10:11:26;;;;;;;1.70;1.60;;;;;;;21.30;73.61;95909.78;4336511;32;20215;-68
2023/09/06 10:13:52;;;;;;;1.10;1.10;;;;;;;21.24;73.87;95904.62;4341295;32;20181;-68
2023/09/06 10:16:19;;;;;;;1.33;1.33;;;;;;;21.42;73.42;95904.28;4331782;32;20251;-69
2023/09/06 10:18:44;;;;;;;1.63;1.53;;;;;;;21.39;73.78;95900.41;4327412;33;20186;-68
2023/09/06 10:21:11;;;;;;;1.10;1.07;;;;;;;21.50;73.53;95906.03;4326809;33;20223;-66
2023/09/06 10:23:47;;;;;;;2.00;1.90;;;;;;;21.58;72.71;95907.78;4318455;33;20186;-68
2023/09/06 10:26:23;;;;;;;1.93;1.73;;;;;;;21.62;72.75;95905.94;4338841;32;20217;-68
2023/09/06 10:28:56;;;;;;;1.80;1.70;;;;;;;21.68;72.66;95909.16;4326581;33;20189;-68
2023/09/06 10:31:50;;;;;;;4.53;4.13;;;;;;;21.69;72.40;95906.13;4327425;32;20174;-67
2023/09/06 10:34:15;;;;;;;1.90;1.87;;;;;;;21.67;72.19;95910.31;4331494;32;20269;-68
2023/09/06 10:36:58;;;;;;;2.40;2.30;;;;;;;21.62;72.33;95916.75;4326110;33;20270;-68
2023/09/06 10:39:32;;;;;;;1.90;1.77;;;;;;;21.67;72.24;95915.69;4324769;33;20224;-68
2023/09/06 10:42:13;;;;;;;2.50;1.57;;;;;;;21.76;71.61;95905.50;4324357;32;20199;-68
2023/09/06 10:44:53;;;;;;;2.23;2.03;;;;;;;21.75;71.51;95902.03;4314395;33;20191;-67
2023/09/06 10:47:33;;;;;;;1.40;1.40;;;;;;;21.82;71.03;95912.97;4330372;32;20182;-68
2023/09/06 10:50:07;;;;;;;1.43;1.33;;;;;;;21.80;70.96;95914.50;4345339;32;20223;-67
2023/09/06 10:53:01;;;;;;;1.53;1.43;;;;;;;21.77;70.45;95910.56;4325134;33;20272;-67
2023/09/06 10:55:29;;;;;;;1.00;1.00;;;;;;;21.80;70.01;95909.09;4318796;33;20183;-67
2023/09/06 10:58:08;;;;;;;1.57;1.47;;;;;;;21.78;69.96;95911.34;4333423;33;20182;-68
2023/09/06 11:00:36;;;;;;;1.87;1.77;;;;;;;21.89;69.84;95905.06;4334556;32;20193;-68
2023/09/06 11:03:08;;;;;;;0.70;0.70;;;;;;;21.93;68.90;95903.22;4324965;32;20223;-67
2023/09/06 11:05:38;;;;;;;1.30;1.30;;;;;;;21.97;67.75;95900.59;4328027;33;20181;-68
2023/09/06 11:08:06;;;;;;;1.30;1.23;;;;;;;21.85;68.33;95912.28;4323774;33;20186;-69
2023/09/06 11:10:32;;;;;;;1.83;1.73;;;;;;;21.84;67.96;95902.63;4328552;32;20205;-68
2023/09/06 11:13:07;;;;;;;1.03;1.03;;;;;;;21.95;67.11;95906.34;4314796;33;20189;-68
2023/09/06 11:15:37;;;;;;;1.60;1.50;;;;;;;22.00;66.51;95908.03;4326788;33;20204;-68
2023/09/06 11:18:03;;;;;;;2.17;1.40;;;;;;;22.03;66.51;95901.16;4330412;33;20173;-68
2023/09/06 11:20:31;;;;;;;1.20;1.20;;;;;;;21.94;66.85;95904.78;4330558;33;20182;-68
2023/09/06 11:22:58;;;;;;;1.37;1.37;;;;;;;22.02;66.32;95900.37;4321502;32;20193;-68
2023/09/06 11:25:25;;;;;;;1.50;1.50;;;;;;;21.92;67.14;95907.06;4330561;33;20182;-68
2023/09/06 11:27:51;;;;;;;1.80;1.70;;;;;;;22.02;66.08;95907.69;4326353;32;20185;-68
2023/09/06 11:30:23;;;;;;;2.80;2.07;;;;;;;22.09;65.60;95899.72;4337780;32;20208;-68
2023/09/06 11:32:56;;;;;;;3.70;3.20;;;;;;;22.09;66.21;95911.31;4326434;33;20186;-68
2023/09/06 11:35:37;;;;;;;2.43;1.90;;;;;;;22.05;66.31;95902.34;4318254;33;20292;-68
2023/09/06 11:38:03;;;;;;;5.73;5.20;;;;;;;22.04;66.31;95898.06;4318947;32;20263;-69